sensor_id;sensor_type;location;lat;lon;timestamp;P1;durP1;ratioP1;P2;durP2;ratioP2
63653;SDS011;49809;47.418;19.080;2024-03-29T00:01:29;0.80;;;0.80;;
63653;SDS011;49809;47.418;19.080;2024-03-29T00:04:31;0.80;;;0.73;;
63653;SDS011;49809;47.418;19.080;2024-03-29T00:07:33;1.83;;;1.00;;
63653;SDS011;49809;47.418;19.080;2024-03-29T00:10:42;1.60;;;0.70;;
63653;SDS011;49809;47.418;19.080;2024-03-29T00:13:44;2.67;;;0.88;;
63653;SDS011;49809;47.418;19.080;2024-03-29T00:16:47;1.02;;;0.80;;
63653;SDS011;49809;47.418;19.080;2024-03-29T00:19:49;1.08;;;0.90;;
63653;SDS011;49809;47.418;19.080;2024-03-29T00:22:54;1.67;;;0.60;;
63653;SDS011;49809;47.418;19.080;2024-03-29T00:26:39;0.57;;;0.57;;
63653;SDS011;49809;47.418;19.080;2024-03-29T00:30:07;1.40;;;0.60;;
63653;SDS011;49809;47.418;19.080;2024-03-29T00:33:09;0.73;;;0.50;;
63653;SDS011;49809;47.418;19.080;2024-03-29T00:36:14;0.55;;;0.50;;
63653;SDS011;49809;47.418;19.080;2024-03-29T00:39:16;0.60;;;0.40;;
63653;SDS011;49809;47.418;19.080;2024-03-29T00:42:23;0.32;;;0.32;;
63653;SDS011;49809;47.418;19.080;2024-03-29T00:45:25;1.08;;;0.40;;
63653;SDS011;49809;47.418;19.080;2024-03-29T00:48:33;0.55;;;0.50;;
63653;SDS011;49809;47.418;19.080;2024-03-29T00:51:48;0.73;;;0.43;;
63653;SDS011;49809;47.418;19.080;2024-03-29T00:54:50;1.90;;;0.50;;
63653;SDS011;49809;47.418;19.080;2024-03-29T00:57:54;2.17;;;0.52;;
63653;SDS011;49809;47.418;19.080;2024-03-29T01:00:57;1.00;;;0.50;;
63653;SDS011;49809;47.418;19.080;2024-03-29T01:04:01;0.52;;;0.40;;
63653;SDS011;49809;47.418;19.080;2024-03-29T01:07:04;0.80;;;0.50;;
63653;SDS011;49809;47.418;19.080;2024-03-29T01:10:10;0.60;;;0.43;;
63653;SDS011;49809;47.418;19.080;2024-03-29T01:13:32;0.50;;;0.40;;
63653;SDS011;49809;47.418;19.080;2024-03-29T01:16:34;0.50;;;0.43;;
63653;SDS011;49809;47.418;19.080;2024-03-29T01:19:38;0.57;;;0.40;;
63653;SDS011;49809;47.418;19.080;2024-03-29T01:22:48;0.60;;;0.43;;
63653;SDS011;49809;47.418;19.080;2024-03-29T01:25:50;0.70;;;0.50;;
63653;SDS011;49809;47.418;19.080;2024-03-29T01:28:52;0.35;;;0.32;;
63653;SDS011;49809;47.418;19.080;2024-03-29T01:31:55;0.50;;;0.50;;
63653;SDS011;49809;47.418;19.080;2024-03-29T01:34:57;1.62;;;0.70;;
63653;SDS011;49809;47.418;19.080;2024-03-29T01:38:22;0.50;;;0.40;;
63653;SDS011;49809;47.418;19.080;2024-03-29T01:41:56;1.73;;;0.40;;
63653;SDS011;49809;47.418;19.080;2024-03-29T01:44:59;0.80;;;0.50;;
63653;SDS011;49809;47.418;19.080;2024-03-29T01:48:01;0.40;;;0.40;;
63653;SDS011;49809;47.418;19.080;2024-03-29T01:51:04;0.85;;;0.52;;
63653;SDS011;49809;47.418;19.080;2024-03-29T01:54:27;0.50;;;0.43;;
63653;SDS011;49809;47.418;19.080;2024-03-29T02:12:39;0.80;;;0.50;;
63653;SDS011;49809;47.418;19.080;2024-03-29T02:15:56;0.55;;;0.50;;
63653;SDS011;49809;47.418;19.080;2024-03-29T02:26:36;0.70;;;0.50;;
63653;SDS011;49809;47.418;19.080;2024-03-29T02:30:12;0.95;;;0.50;;
63653;SDS011;49809;47.418;19.080;2024-03-29T02:33:35;0.90;;;0.50;;
63653;SDS011;49809;47.418;19.080;2024-03-29T02:36:54;0.80;;;0.60;;
63653;SDS011;49809;47.418;19.080;2024-03-29T02:40:27;1.75;;;0.52;;
63653;SDS011;49809;47.418;19.080;2024-03-29T02:44:04;1.52;;;0.70;;
63653;SDS011;49809;47.418;19.080;2024-03-29T02:47:36;0.90;;;0.55;;
63653;SDS011;49809;47.418;19.080;2024-03-29T02:50:55;0.93;;;0.70;;
63653;SDS011;49809;47.418;19.080;2024-03-29T02:54:14;0.80;;;0.60;;
63653;SDS011;49809;47.418;19.080;2024-03-29T03:01:20;0.80;;;0.50;;
63653;SDS011;49809;47.418;19.080;2024-03-29T03:04:37;1.05;;;0.70;;
63653;SDS011;49809;47.418;19.080;2024-03-29T03:07:56;1.17;;;0.68;;
63653;SDS011;49809;47.418;19.080;2024-03-29T03:11:46;2.50;;;0.73;;
63653;SDS011;49809;47.418;19.080;2024-03-29T03:15:07;0.68;;;0.60;;
63653;SDS011;49809;47.418;19.080;2024-03-29T03:22:18;1.40;;;0.88;;
63653;SDS011;49809;47.418;19.080;2024-03-29T03:26:00;2.70;;;0.80;;
63653;SDS011;49809;47.418;19.080;2024-03-29T03:29:44;1.33;;;0.77;;
63653;SDS011;49809;47.418;19.080;2024-03-29T03:33:05;1.60;;;1.10;;
63653;SDS011;49809;47.418;19.080;2024-03-29T03:39:55;1.60;;;1.00;;
63653;SDS011;49809;47.418;19.080;2024-03-29T03:43:21;1.33;;;1.00;;
63653;SDS011;49809;47.418;19.080;2024-03-29T03:46:51;1.30;;;0.90;;
63653;SDS011;49809;47.418;19.080;2024-03-29T03:50:11;1.98;;;1.33;;
63653;SDS011;49809;47.418;19.080;2024-03-29T03:53:31;2.37;;;1.12;;
63653;SDS011;49809;47.418;19.080;2024-03-29T03:56:49;2.90;;;1.23;;
63653;SDS011;49809;47.418;19.080;2024-03-29T04:00:27;2.35;;;1.23;;
63653;SDS011;49809;47.418;19.080;2024-03-29T04:03:52;3.75;;;1.75;;
63653;SDS011;49809;47.418;19.080;2024-03-29T04:07:12;2.67;;;1.33;;
63653;SDS011;49809;47.418;19.080;2024-03-29T04:10:32;2.40;;;1.10;;
63653;SDS011;49809;47.418;19.080;2024-03-29T04:13:57;2.10;;;1.10;;
63653;SDS011;49809;47.418;19.080;2024-03-29T04:17:22;2.03;;;1.15;;
63653;SDS011;49809;47.418;19.080;2024-03-29T04:27:49;1.30;;;0.80;;
63653;SDS011;49809;47.418;19.080;2024-03-29T04:38:46;3.72;;;0.90;;
63653;SDS011;49809;47.418;19.080;2024-03-29T04:42:05;2.28;;;1.20;;
63653;SDS011;49809;47.418;19.080;2024-03-29T04:45:35;3.85;;;1.20;;
63653;SDS011;49809;47.418;19.080;2024-03-29T04:48:52;1.50;;;1.00;;
63653;SDS011;49809;47.418;19.080;2024-03-29T04:52:14;2.33;;;1.17;;
63653;SDS011;49809;47.418;19.080;2024-03-29T04:55:38;2.33;;;1.60;;
63653;SDS011;49809;47.418;19.080;2024-03-29T05:02:37;2.92;;;1.65;;
63653;SDS011;49809;47.418;19.080;2024-03-29T05:05:58;3.20;;;1.40;;
63653;SDS011;49809;47.418;19.080;2024-03-29T05:09:28;2.47;;;1.55;;
63653;SDS011;49809;47.418;19.080;2024-03-29T05:16:40;4.10;;;1.95;;
63653;SDS011;49809;47.418;19.080;2024-03-29T05:23:29;3.00;;;1.77;;
63653;SDS011;49809;47.418;19.080;2024-03-29T05:33:51;3.28;;;1.70;;
63653;SDS011;49809;47.418;19.080;2024-03-29T05:37:19;3.40;;;2.08;;
63653;SDS011;49809;47.418;19.080;2024-03-29T05:40:46;3.30;;;1.85;;
63653;SDS011;49809;47.418;19.080;2024-03-29T05:59:55;2.65;;;1.80;;
63653;SDS011;49809;47.418;19.080;2024-03-29T06:03:17;3.50;;;1.70;;
63653;SDS011;49809;47.418;19.080;2024-03-29T06:07:07;5.28;;;2.00;;
63653;SDS011;49809;47.418;19.080;2024-03-29T06:14:09;3.90;;;2.25;;
63653;SDS011;49809;47.418;19.080;2024-03-29T06:17:34;4.90;;;1.90;;
63653;SDS011;49809;47.418;19.080;2024-03-29T06:28:23;2.37;;;1.52;;
63653;SDS011;49809;47.418;19.080;2024-03-29T06:31:32;2.78;;;1.37;;
63653;SDS011;49809;47.418;19.080;2024-03-29T06:34:58;2.17;;;1.12;;
63653;SDS011;49809;47.418;19.080;2024-03-29T06:45:18;1.12;;;0.93;;
63653;SDS011;49809;47.418;19.080;2024-03-29T06:48:37;1.48;;;1.00;;
63653;SDS011;49809;47.418;19.080;2024-03-29T07:33:31;1.52;;;0.90;;
63653;SDS011;49809;47.418;19.080;2024-03-29T08:03:05;2.12;;;0.80;;
63653;SDS011;49809;47.418;19.080;2024-03-29T08:06:32;1.30;;;0.80;;
63653;SDS011;49809;47.418;19.080;2024-03-29T08:25:10;1.20;;;0.90;;
63653;SDS011;49809;47.418;19.080;2024-03-29T08:28:27;2.75;;;1.30;;
63653;SDS011;49809;47.418;19.080;2024-03-29T08:31:32;2.35;;;1.10;;
63653;SDS011;49809;47.418;19.080;2024-03-29T08:34:54;1.70;;;0.80;;
63653;SDS011;49809;47.418;19.080;2024-03-29T08:37:56;0.85;;;0.68;;
63653;SDS011;49809;47.418;19.080;2024-03-29T08:40:58;0.70;;;0.68;;
63653;SDS011;49809;47.418;19.080;2024-03-29T08:44:28;0.77;;;0.45;;
63653;SDS011;49809;47.418;19.080;2024-03-29T08:47:47;0.50;;;0.40;;
63653;SDS011;49809;47.418;19.080;2024-03-29T08:51:11;0.52;;;0.50;;
63653;SDS011;49809;47.418;19.080;2024-03-29T08:54:33;0.77;;;0.62;;
63653;SDS011;49809;47.418;19.080;2024-03-29T08:57:37;1.00;;;0.57;;
63653;SDS011;49809;47.418;19.080;2024-03-29T09:00:59;1.08;;;0.70;;
63653;SDS011;49809;47.418;19.080;2024-03-29T09:04:22;0.60;;;0.52;;
63653;SDS011;49809;47.418;19.080;2024-03-29T09:07:25;0.70;;;0.40;;
63653;SDS011;49809;47.418;19.080;2024-03-29T09:10:32;0.95;;;0.50;;
63653;SDS011;49809;47.418;19.080;2024-03-29T09:13:36;0.35;;;0.35;;
63653;SDS011;49809;47.418;19.080;2024-03-29T09:16:38;0.75;;;0.35;;
63653;SDS011;49809;47.418;19.080;2024-03-29T09:19:44;0.43;;;0.30;;
63653;SDS011;49809;47.418;19.080;2024-03-29T09:22:49;0.40;;;0.30;;
63653;SDS011;49809;47.418;19.080;2024-03-29T09:25:56;0.20;;;0.20;;
63653;SDS011;49809;47.418;19.080;2024-03-29T09:32:26;1.45;;;0.70;;
63653;SDS011;49809;47.418;19.080;2024-03-29T09:36:23;0.88;;;0.62;;
63653;SDS011;49809;47.418;19.080;2024-03-29T09:39:45;3.10;;;0.90;;
63653;SDS011;49809;47.418;19.080;2024-03-29T09:43:13;0.93;;;0.60;;
63653;SDS011;49809;47.418;19.080;2024-03-29T09:46:16;0.70;;;0.50;;
63653;SDS011;49809;47.418;19.080;2024-03-29T09:49:20;0.82;;;0.60;;
63653;SDS011;49809;47.418;19.080;2024-03-29T09:52:43;0.40;;;0.40;;
63653;SDS011;49809;47.418;19.080;2024-03-29T09:55:47;0.80;;;0.30;;
63653;SDS011;49809;47.418;19.080;2024-03-29T09:58:49;0.43;;;0.30;;
63653;SDS011;49809;47.418;19.080;2024-03-29T10:01:53;1.20;;;0.50;;
63653;SDS011;49809;47.418;19.080;2024-03-29T10:04:59;1.08;;;0.40;;
63653;SDS011;49809;47.418;19.080;2024-03-29T10:08:06;0.65;;;0.50;;
63653;SDS011;49809;47.418;19.080;2024-03-29T10:11:15;0.95;;;0.30;;
63653;SDS011;49809;47.418;19.080;2024-03-29T10:14:47;1.27;;;0.30;;
63653;SDS011;49809;47.418;19.080;2024-03-29T10:18:10;0.45;;;0.40;;
63653;SDS011;49809;47.418;19.080;2024-03-29T10:21:11;0.93;;;0.40;;
63653;SDS011;49809;47.418;19.080;2024-03-29T10:24:20;2.85;;;0.50;;
63653;SDS011;49809;47.418;19.080;2024-03-29T10:27:25;1.37;;;0.40;;
63653;SDS011;49809;47.418;19.080;2024-03-29T10:30:32;0.60;;;0.40;;
63653;SDS011;49809;47.418;19.080;2024-03-29T10:34:04;1.40;;;0.40;;
63653;SDS011;49809;47.418;19.080;2024-03-29T10:37:38;1.00;;;0.40;;
63653;SDS011;49809;47.418;19.080;2024-03-29T10:41:04;1.75;;;0.47;;
63653;SDS011;49809;47.418;19.080;2024-03-29T10:44:39;1.83;;;0.50;;
63653;SDS011;49809;47.418;19.080;2024-03-29T10:47:44;1.65;;;0.50;;
63653;SDS011;49809;47.418;19.080;2024-03-29T10:51:12;1.27;;;0.50;;
63653;SDS011;49809;47.418;19.080;2024-03-29T10:54:34;1.23;;;0.50;;
63653;SDS011;49809;47.418;19.080;2024-03-29T10:58:03;1.98;;;0.70;;
63653;SDS011;49809;47.418;19.080;2024-03-29T11:01:27;0.50;;;0.45;;
63653;SDS011;49809;47.418;19.080;2024-03-29T11:04:53;1.33;;;0.60;;
63653;SDS011;49809;47.418;19.080;2024-03-29T11:08:26;2.12;;;0.75;;
63653;SDS011;49809;47.418;19.080;2024-03-29T11:11:58;2.00;;;0.73;;
63653;SDS011;49809;47.418;19.080;2024-03-29T11:15:28;2.08;;;0.70;;
63653;SDS011;49809;47.418;19.080;2024-03-29T11:19:12;2.70;;;0.80;;
63653;SDS011;49809;47.418;19.080;2024-03-29T11:22:37;2.37;;;0.70;;
63653;SDS011;49809;47.418;19.080;2024-03-29T11:26:07;2.00;;;0.77;;
63653;SDS011;49809;47.418;19.080;2024-03-29T11:29:32;3.28;;;0.90;;
63653;SDS011;49809;47.418;19.080;2024-03-29T11:33:02;3.70;;;0.90;;
63653;SDS011;49809;47.418;19.080;2024-03-29T11:39:40;3.78;;;0.90;;
63653;SDS011;49809;47.418;19.080;2024-03-29T11:42:48;2.92;;;0.80;;
63653;SDS011;49809;47.418;19.080;2024-03-29T11:46:09;3.05;;;0.88;;
63653;SDS011;49809;47.418;19.080;2024-03-29T11:49:18;3.47;;;0.82;;
63653;SDS011;49809;47.418;19.080;2024-03-29T11:52:38;4.03;;;0.95;;
63653;SDS011;49809;47.418;19.080;2024-03-29T11:56:03;2.20;;;0.70;;
63653;SDS011;49809;47.418;19.080;2024-03-29T11:59:25;3.90;;;1.10;;
63653;SDS011;49809;47.418;19.080;2024-03-29T12:02:52;3.50;;;1.40;;
63653;SDS011;49809;47.418;19.080;2024-03-29T12:06:11;4.22;;;0.95;;
63653;SDS011;49809;47.418;19.080;2024-03-29T12:24:30;5.70;;;1.12;;
63653;SDS011;49809;47.418;19.080;2024-03-29T12:27:56;6.18;;;1.27;;
63653;SDS011;49809;47.418;19.080;2024-03-29T12:31:24;4.95;;;0.90;;
63653;SDS011;49809;47.418;19.080;2024-03-29T12:34:45;4.32;;;0.95;;
63653;SDS011;49809;47.418;19.080;2024-03-29T12:38:19;3.58;;;0.90;;
63653;SDS011;49809;47.418;19.080;2024-03-29T12:41:45;3.67;;;1.37;;
63653;SDS011;49809;47.418;19.080;2024-03-29T12:45:10;5.12;;;1.20;;
63653;SDS011;49809;47.418;19.080;2024-03-29T12:48:15;4.65;;;1.40;;
63653;SDS011;49809;47.418;19.080;2024-03-29T12:51:44;3.08;;;1.00;;
63653;SDS011;49809;47.418;19.080;2024-03-29T12:54:48;6.07;;;1.00;;
63653;SDS011;49809;47.418;19.080;2024-03-29T12:58:08;2.47;;;1.10;;
63653;SDS011;49809;47.418;19.080;2024-03-29T13:01:14;4.40;;;1.00;;
63653;SDS011;49809;47.418;19.080;2024-03-29T13:04:44;5.57;;;1.00;;
63653;SDS011;49809;47.418;19.080;2024-03-29T13:08:12;8.73;;;1.87;;
63653;SDS011;49809;47.418;19.080;2024-03-29T13:11:47;4.95;;;1.30;;
63653;SDS011;49809;47.418;19.080;2024-03-29T13:15:17;5.00;;;1.40;;
63653;SDS011;49809;47.418;19.080;2024-03-29T13:18:50;6.10;;;1.50;;
63653;SDS011;49809;47.418;19.080;2024-03-29T13:22:12;7.10;;;1.27;;
63653;SDS011;49809;47.418;19.080;2024-03-29T13:25:40;5.03;;;1.05;;
63653;SDS011;49809;47.418;19.080;2024-03-29T13:29:02;9.75;;;1.30;;
63653;SDS011;49809;47.418;19.080;2024-03-29T13:32:34;4.50;;;1.10;;
63653;SDS011;49809;47.418;19.080;2024-03-29T13:36:02;9.02;;;1.20;;
63653;SDS011;49809;47.418;19.080;2024-03-29T13:39:22;5.18;;;1.40;;
63653;SDS011;49809;47.418;19.080;2024-03-29T13:42:46;5.22;;;1.30;;
63653;SDS011;49809;47.418;19.080;2024-03-29T13:46:06;6.25;;;1.58;;
63653;SDS011;49809;47.418;19.080;2024-03-29T13:49:29;4.60;;;1.23;;
63653;SDS011;49809;47.418;19.080;2024-03-29T13:52:46;5.93;;;1.23;;
63653;SDS011;49809;47.418;19.080;2024-03-29T13:56:06;4.80;;;1.20;;
63653;SDS011;49809;47.418;19.080;2024-03-29T13:59:36;3.33;;;1.12;;
63653;SDS011;49809;47.418;19.080;2024-03-29T14:03:03;3.50;;;1.40;;
63653;SDS011;49809;47.418;19.080;2024-03-29T14:06:26;3.12;;;1.30;;
63653;SDS011;49809;47.418;19.080;2024-03-29T14:09:46;3.78;;;1.62;;
63653;SDS011;49809;47.418;19.080;2024-03-29T14:50:12;7.00;;;1.50;;
63653;SDS011;49809;47.418;19.080;2024-03-29T15:11:17;4.22;;;1.25;;
63653;SDS011;49809;47.418;19.080;2024-03-29T15:14:38;10.18;;;1.50;;
63653;SDS011;49809;47.418;19.080;2024-03-29T15:17:41;7.62;;;1.25;;
63653;SDS011;49809;47.418;19.080;2024-03-29T15:21:01;4.97;;;1.33;;
63653;SDS011;49809;47.418;19.080;2024-03-29T15:24:22;5.18;;;1.40;;
63653;SDS011;49809;47.418;19.080;2024-03-29T15:27:44;5.20;;;1.25;;
63653;SDS011;49809;47.418;19.080;2024-03-29T15:31:31;6.95;;;1.70;;
63653;SDS011;49809;47.418;19.080;2024-03-29T15:35:02;6.55;;;1.52;;
63653;SDS011;49809;47.418;19.080;2024-03-29T15:38:26;7.75;;;1.62;;
63653;SDS011;49809;47.418;19.080;2024-03-29T15:41:56;6.30;;;1.30;;
63653;SDS011;49809;47.418;19.080;2024-03-29T15:45:17;4.37;;;1.27;;
63653;SDS011;49809;47.418;19.080;2024-03-29T15:48:48;7.47;;;1.33;;
63653;SDS011;49809;47.418;19.080;2024-03-29T15:51:53;11.45;;;1.70;;
63653;SDS011;49809;47.418;19.080;2024-03-29T15:55:21;4.40;;;1.00;;
63653;SDS011;49809;47.418;19.080;2024-03-29T15:58:45;7.47;;;1.58;;
63653;SDS011;49809;47.418;19.080;2024-03-29T16:02:05;9.18;;;1.60;;
63653;SDS011;49809;47.418;19.080;2024-03-29T16:05:35;6.97;;;1.60;;
63653;SDS011;49809;47.418;19.080;2024-03-29T16:08:57;5.55;;;1.80;;
63653;SDS011;49809;47.418;19.080;2024-03-29T16:12:27;6.68;;;1.55;;
63653;SDS011;49809;47.418;19.080;2024-03-29T16:19:26;5.28;;;1.30;;
63653;SDS011;49809;47.418;19.080;2024-03-29T16:22:51;6.85;;;1.40;;
63653;SDS011;49809;47.418;19.080;2024-03-29T16:26:35;6.80;;;1.55;;
63653;SDS011;49809;47.418;19.080;2024-03-29T16:30:00;9.70;;;1.75;;
63653;SDS011;49809;47.418;19.080;2024-03-29T16:33:23;6.53;;;1.95;;
63653;SDS011;49809;47.418;19.080;2024-03-29T16:36:46;8.40;;;2.60;;
63653;SDS011;49809;47.418;19.080;2024-03-29T16:47:35;7.60;;;2.00;;
63653;SDS011;49809;47.418;19.080;2024-03-29T16:51:03;6.57;;;2.87;;
63653;SDS011;49809;47.418;19.080;2024-03-29T16:54:11;9.30;;;2.30;;
63653;SDS011;49809;47.418;19.080;2024-03-29T16:57:32;7.50;;;2.30;;
63653;SDS011;49809;47.418;19.080;2024-03-29T17:00:57;12.77;;;2.60;;
63653;SDS011;49809;47.418;19.080;2024-03-29T17:04:19;14.63;;;3.47;;
63653;SDS011;49809;47.418;19.080;2024-03-29T17:07:22;15.75;;;5.40;;
63653;SDS011;49809;47.418;19.080;2024-03-29T17:10:48;12.33;;;3.90;;
63653;SDS011;49809;47.418;19.080;2024-03-29T17:14:10;12.25;;;4.28;;
63653;SDS011;49809;47.418;19.080;2024-03-29T17:17:37;9.13;;;2.67;;
63653;SDS011;49809;47.418;19.080;2024-03-29T17:20:39;10.85;;;2.35;;
63653;SDS011;49809;47.418;19.080;2024-03-29T17:24:07;6.57;;;2.60;;
63653;SDS011;49809;47.418;19.080;2024-03-29T17:27:35;8.73;;;3.30;;
63653;SDS011;49809;47.418;19.080;2024-03-29T17:31:11;11.30;;;3.00;;
63653;SDS011;49809;47.418;19.080;2024-03-29T17:34:35;9.98;;;3.08;;
63653;SDS011;49809;47.418;19.080;2024-03-29T17:41:05;11.75;;;3.67;;
63653;SDS011;49809;47.418;19.080;2024-03-29T17:44:33;11.60;;;4.05;;
63653;SDS011;49809;47.418;19.080;2024-03-29T17:47:57;10.82;;;4.90;;
63653;SDS011;49809;47.418;19.080;2024-03-29T17:51:26;10.18;;;3.97;;
63653;SDS011;49809;47.418;19.080;2024-03-29T17:54:50;8.20;;;2.97;;
63653;SDS011;49809;47.418;19.080;2024-03-29T17:58:23;12.18;;;3.75;;
63653;SDS011;49809;47.418;19.080;2024-03-29T18:01:45;11.35;;;3.45;;
63653;SDS011;49809;47.418;19.080;2024-03-29T18:05:02;8.32;;;3.05;;
63653;SDS011;49809;47.418;19.080;2024-03-29T18:08:29;19.00;;;7.95;;
63653;SDS011;49809;47.418;19.080;2024-03-29T18:11:45;21.52;;;8.40;;
63653;SDS011;49809;47.418;19.080;2024-03-29T18:14:47;17.30;;;6.60;;
63653;SDS011;49809;47.418;19.080;2024-03-29T18:18:19;18.08;;;6.62;;
63653;SDS011;49809;47.418;19.080;2024-03-29T18:21:43;12.10;;;4.10;;
63653;SDS011;49809;47.418;19.080;2024-03-29T18:25:09;9.82;;;3.33;;
63653;SDS011;49809;47.418;19.080;2024-03-29T18:28:35;7.32;;;2.67;;
63653;SDS011;49809;47.418;19.080;2024-03-29T18:32:05;10.10;;;2.80;;
63653;SDS011;49809;47.418;19.080;2024-03-29T18:35:28;10.82;;;2.72;;
63653;SDS011;49809;47.418;19.080;2024-03-29T18:38:52;9.07;;;2.10;;
63653;SDS011;49809;47.418;19.080;2024-03-29T18:41:53;9.55;;;2.40;;
63653;SDS011;49809;47.418;19.080;2024-03-29T18:44:56;11.07;;;2.10;;
63653;SDS011;49809;47.418;19.080;2024-03-29T18:48:02;9.15;;;2.75;;
63653;SDS011;49809;47.418;19.080;2024-03-29T18:51:09;11.57;;;2.58;;
63653;SDS011;49809;47.418;19.080;2024-03-29T18:54:11;9.52;;;2.85;;
63653;SDS011;49809;47.418;19.080;2024-03-29T18:57:21;9.68;;;2.15;;
63653;SDS011;49809;47.418;19.080;2024-03-29T19:00:23;10.18;;;2.47;;
63653;SDS011;49809;47.418;19.080;2024-03-29T19:03:27;10.73;;;2.60;;
63653;SDS011;49809;47.418;19.080;2024-03-29T19:06:29;8.00;;;2.60;;
63653;SDS011;49809;47.418;19.080;2024-03-29T19:09:52;7.65;;;2.90;;
63653;SDS011;49809;47.418;19.080;2024-03-29T19:12:54;7.55;;;2.47;;
63653;SDS011;49809;47.418;19.080;2024-03-29T19:15:59;8.55;;;2.95;;
63653;SDS011;49809;47.418;19.080;2024-03-29T19:19:01;10.15;;;2.85;;
63653;SDS011;49809;47.418;19.080;2024-03-29T19:22:04;5.45;;;1.83;;
63653;SDS011;49809;47.418;19.080;2024-03-29T19:25:07;7.80;;;2.12;;
63653;SDS011;49809;47.418;19.080;2024-03-29T19:28:09;5.22;;;1.80;;
63653;SDS011;49809;47.418;19.080;2024-03-29T19:31:11;6.47;;;2.22;;
63653;SDS011;49809;47.418;19.080;2024-03-29T19:34:16;11.02;;;2.08;;
63653;SDS011;49809;47.418;19.080;2024-03-29T19:37:20;6.20;;;2.35;;
63653;SDS011;49809;47.418;19.080;2024-03-29T19:40:25;7.78;;;1.90;;
63653;SDS011;49809;47.418;19.080;2024-03-29T19:43:28;5.85;;;2.03;;
63653;SDS011;49809;47.418;19.080;2024-03-29T19:46:59;6.03;;;2.00;;
63653;SDS011;49809;47.418;19.080;2024-03-29T19:50:23;5.90;;;1.73;;
63653;SDS011;49809;47.418;19.080;2024-03-29T19:53:25;7.45;;;2.12;;
63653;SDS011;49809;47.418;19.080;2024-03-29T19:56:49;6.15;;;2.47;;
63653;SDS011;49809;47.418;19.080;2024-03-29T19:59:51;5.80;;;2.10;;
63653;SDS011;49809;47.418;19.080;2024-03-29T20:03:13;7.55;;;2.90;;
63653;SDS011;49809;47.418;19.080;2024-03-29T20:06:36;10.57;;;4.10;;
63653;SDS011;49809;47.418;19.080;2024-03-29T20:09:38;6.37;;;2.72;;
63653;SDS011;49809;47.418;19.080;2024-03-29T20:12:40;5.95;;;2.22;;
63653;SDS011;49809;47.418;19.080;2024-03-29T20:15:45;8.40;;;2.30;;
63653;SDS011;49809;47.418;19.080;2024-03-29T20:18:48;13.52;;;3.50;;
63653;SDS011;49809;47.418;19.080;2024-03-29T20:21:49;9.30;;;3.12;;
63653;SDS011;49809;47.418;19.080;2024-03-29T20:25:15;6.68;;;3.72;;
63653;SDS011;49809;47.418;19.080;2024-03-29T20:28:38;10.93;;;3.37;;
63653;SDS011;49809;47.418;19.080;2024-03-29T20:31:44;9.60;;;3.42;;
63653;SDS011;49809;47.418;19.080;2024-03-29T20:34:48;9.40;;;3.15;;
63653;SDS011;49809;47.418;19.080;2024-03-29T20:37:50;11.25;;;3.30;;
63653;SDS011;49809;47.418;19.080;2024-03-29T20:40:55;8.52;;;3.37;;
63653;SDS011;49809;47.418;19.080;2024-03-29T20:43:58;9.52;;;3.20;;
63653;SDS011;49809;47.418;19.080;2024-03-29T20:47:07;14.27;;;5.45;;
63653;SDS011;49809;47.418;19.080;2024-03-29T20:50:10;18.50;;;7.37;;
63653;SDS011;49809;47.418;19.080;2024-03-29T20:53:12;15.70;;;7.50;;
63653;SDS011;49809;47.418;19.080;2024-03-29T20:56:14;10.15;;;4.20;;
63653;SDS011;49809;47.418;19.080;2024-03-29T20:59:16;12.63;;;3.83;;
63653;SDS011;49809;47.418;19.080;2024-03-29T21:02:38;11.65;;;5.00;;
63653;SDS011;49809;47.418;19.080;2024-03-29T21:06:01;13.43;;;5.15;;
63653;SDS011;49809;47.418;19.080;2024-03-29T21:09:05;8.63;;;4.60;;
63653;SDS011;49809;47.418;19.080;2024-03-29T21:12:27;8.23;;;3.78;;
63653;SDS011;49809;47.418;19.080;2024-03-29T21:15:49;6.65;;;3.10;;
63653;SDS011;49809;47.418;19.080;2024-03-29T21:18:51;8.52;;;2.92;;
63653;SDS011;49809;47.418;19.080;2024-03-29T21:25:01;7.93;;;2.50;;
63653;SDS011;49809;47.418;19.080;2024-03-29T21:28:08;6.65;;;2.05;;
63653;SDS011;49809;47.418;19.080;2024-03-29T21:31:11;7.28;;;2.17;;
63653;SDS011;49809;47.418;19.080;2024-03-29T21:34:14;10.27;;;2.05;;
63653;SDS011;49809;47.418;19.080;2024-03-29T21:37:16;6.30;;;2.22;;
63653;SDS011;49809;47.418;19.080;2024-03-29T21:40:39;7.40;;;2.10;;
63653;SDS011;49809;47.418;19.080;2024-03-29T21:43:41;6.82;;;1.73;;
63653;SDS011;49809;47.418;19.080;2024-03-29T21:47:03;9.07;;;1.87;;
63653;SDS011;49809;47.418;19.080;2024-03-29T21:50:05;8.57;;;2.12;;
63653;SDS011;49809;47.418;19.080;2024-03-29T21:53:10;7.22;;;1.40;;
63653;SDS011;49809;47.418;19.080;2024-03-29T21:56:13;5.10;;;1.43;;
63653;SDS011;49809;47.418;19.080;2024-03-29T21:59:17;3.50;;;1.70;;
63653;SDS011;49809;47.418;19.080;2024-03-29T22:02:23;6.15;;;1.83;;
63653;SDS011;49809;47.418;19.080;2024-03-29T22:05:27;6.60;;;1.83;;
63653;SDS011;49809;47.418;19.080;2024-03-29T22:08:28;4.37;;;1.52;;
63653;SDS011;49809;47.418;19.080;2024-03-29T22:11:39;7.80;;;1.70;;
63653;SDS011;49809;47.418;19.080;2024-03-29T22:14:42;9.65;;;1.80;;
63653;SDS011;49809;47.418;19.080;2024-03-29T22:17:44;6.90;;;1.70;;
63653;SDS011;49809;47.418;19.080;2024-03-29T22:20:48;9.15;;;1.95;;
63653;SDS011;49809;47.418;19.080;2024-03-29T22:23:52;3.17;;;1.48;;
63653;SDS011;49809;47.418;19.080;2024-03-29T22:26:54;4.65;;;1.60;;
63653;SDS011;49809;47.418;19.080;2024-03-29T22:29:58;5.53;;;2.00;;
63653;SDS011;49809;47.418;19.080;2024-03-29T22:33:00;4.05;;;1.37;;
63653;SDS011;49809;47.418;19.080;2024-03-29T22:36:05;5.68;;;1.58;;
63653;SDS011;49809;47.418;19.080;2024-03-29T22:39:10;7.43;;;1.40;;
63653;SDS011;49809;47.418;19.080;2024-03-29T22:42:12;9.52;;;1.85;;
63653;SDS011;49809;47.418;19.080;2024-03-29T22:45:14;8.05;;;1.37;;
63653;SDS011;49809;47.418;19.080;2024-03-29T22:48:18;8.05;;;1.87;;
63653;SDS011;49809;47.418;19.080;2024-03-29T22:51:20;5.68;;;1.65;;
63653;SDS011;49809;47.418;19.080;2024-03-29T22:54:25;7.65;;;1.75;;
63653;SDS011;49809;47.418;19.080;2024-03-29T22:57:29;8.02;;;1.55;;
63653;SDS011;49809;47.418;19.080;2024-03-29T23:00:33;9.20;;;1.73;;
63653;SDS011;49809;47.418;19.080;2024-03-29T23:03:35;6.20;;;1.60;;
63653;SDS011;49809;47.418;19.080;2024-03-29T23:06:41;6.85;;;1.55;;
63653;SDS011;49809;47.418;19.080;2024-03-29T23:09:46;5.75;;;1.77;;
63653;SDS011;49809;47.418;19.080;2024-03-29T23:12:54;8.77;;;1.80;;
63653;SDS011;49809;47.418;19.080;2024-03-29T23:15:59;5.80;;;1.92;;
63653;SDS011;49809;47.418;19.080;2024-03-29T23:19:08;4.33;;;1.40;;
63653;SDS011;49809;47.418;19.080;2024-03-29T23:25:17;4.28;;;1.42;;
63653;SDS011;49809;47.418;19.080;2024-03-29T23:28:21;9.27;;;1.70;;
63653;SDS011;49809;47.418;19.080;2024-03-29T23:31:23;3.78;;;1.37;;
63653;SDS011;49809;47.418;19.080;2024-03-29T23:34:28;8.95;;;1.80;;
63653;SDS011;49809;47.418;19.080;2024-03-29T23:37:50;5.57;;;2.00;;
63653;SDS011;49809;47.418;19.080;2024-03-29T23:41:01;5.97;;;2.15;;
63653;SDS011;49809;47.418;19.080;2024-03-29T23:44:03;4.15;;;1.62;;
63653;SDS011;49809;47.418;19.080;2024-03-29T23:47:27;5.32;;;1.83;;
63653;SDS011;49809;47.418;19.080;2024-03-29T23:50:31;4.68;;;1.42;;
63653;SDS011;49809;47.418;19.080;2024-03-29T23:53:37;5.68;;;1.40;;
63653;SDS011;49809;47.418;19.080;2024-03-29T23:56:40;6.00;;;1.55;;
63653;SDS011;49809;47.418;19.080;2024-03-29T23:59:43;2.95;;;1.70;;
